sensor_id;sensor_type;location;lat;lon;timestamp;P1;durP1;ratioP1;P2;durP2;ratioP2
41623;SDS011;27319;50.306;18.926;2023-09-12T00:01:40;18.00;;;13.60;;
41623;SDS011;27319;50.306;18.926;2023-09-12T00:04:41;16.60;;;10.65;;
41623;SDS011;27319;50.306;18.926;2023-09-12T00:07:42;19.63;;;12.35;;
41623;SDS011;27319;50.306;18.926;2023-09-12T00:10:43;18.65;;;13.13;;
41623;SDS011;27319;50.306;18.926;2023-09-12T00:13:44;20.83;;;12.23;;
41623;SDS011;27319;50.306;18.926;2023-09-12T00:16:45;19.27;;;12.73;;
41623;SDS011;27319;50.306;18.926;2023-09-12T00:19:47;17.05;;;11.57;;
41623;SDS011;27319;50.306;18.926;2023-09-12T00:22:47;18.75;;;13.32;;
41623;SDS011;27319;50.306;18.926;2023-09-12T00:25:49;22.73;;;13.13;;
41623;SDS011;27319;50.306;18.926;2023-09-12T00:28:51;20.77;;;12.35;;
41623;SDS011;27319;50.306;18.926;2023-09-12T00:31:52;19.05;;;12.35;;
41623;SDS011;27319;50.306;18.926;2023-09-12T00:34:53;17.85;;;12.60;;
41623;SDS011;27319;50.306;18.926;2023-09-12T00:37:54;21.20;;;13.20;;
41623;SDS011;27319;50.306;18.926;2023-09-12T00:40:55;17.67;;;12.85;;
41623;SDS011;27319;50.306;18.926;2023-09-12T00:43:56;21.30;;;13.65;;
41623;SDS011;27319;50.306;18.926;2023-09-12T00:46:58;17.98;;;12.40;;
41623;SDS011;27319;50.306;18.926;2023-09-12T00:50:00;20.80;;;13.38;;
41623;SDS011;27319;50.306;18.926;2023-09-12T00:53:03;16.50;;;12.18;;
41623;SDS011;27319;50.306;18.926;2023-09-12T00:56:04;18.83;;;12.80;;
41623;SDS011;27319;50.306;18.926;2023-09-12T00:59:08;22.52;;;13.23;;
41623;SDS011;27319;50.306;18.926;2023-09-12T01:02:10;23.65;;;15.02;;
41623;SDS011;27319;50.306;18.926;2023-09-12T01:05:14;21.30;;;13.27;;
41623;SDS011;27319;50.306;18.926;2023-09-12T01:08:16;18.08;;;13.75;;
41623;SDS011;27319;50.306;18.926;2023-09-12T01:11:17;23.65;;;14.52;;
41623;SDS011;27319;50.306;18.926;2023-09-12T01:14:18;22.40;;;14.02;;
41623;SDS011;27319;50.306;18.926;2023-09-12T01:17:20;25.00;;;16.25;;
41623;SDS011;27319;50.306;18.926;2023-09-12T01:20:24;23.55;;;15.27;;
41623;SDS011;27319;50.306;18.926;2023-09-12T01:23:35;27.60;;;17.50;;
41623;SDS011;27319;50.306;18.926;2023-09-12T01:29:57;25.83;;;18.15;;
41623;SDS011;27319;50.306;18.926;2023-09-12T01:33:01;24.83;;;17.73;;
41623;SDS011;27319;50.306;18.926;2023-09-12T01:36:02;29.23;;;17.80;;
41623;SDS011;27319;50.306;18.926;2023-09-12T01:39:03;23.80;;;15.98;;
41623;SDS011;27319;50.306;18.926;2023-09-12T01:42:04;20.35;;;15.35;;
41623;SDS011;27319;50.306;18.926;2023-09-12T01:45:08;26.23;;;17.42;;
41623;SDS011;27319;50.306;18.926;2023-09-12T01:48:11;20.05;;;14.88;;
41623;SDS011;27319;50.306;18.926;2023-09-12T01:51:12;18.38;;;15.38;;
41623;SDS011;27319;50.306;18.926;2023-09-12T01:54:14;24.67;;;15.95;;
41623;SDS011;27319;50.306;18.926;2023-09-12T01:57:17;25.58;;;17.42;;
41623;SDS011;27319;50.306;18.926;2023-09-12T02:00:21;24.65;;;17.67;;
41623;SDS011;27319;50.306;18.926;2023-09-12T02:03:22;27.70;;;19.27;;
41623;SDS011;27319;50.306;18.926;2023-09-12T02:06:22;21.55;;;15.90;;
41623;SDS011;27319;50.306;18.926;2023-09-12T02:09:24;23.48;;;16.25;;
41623;SDS011;27319;50.306;18.926;2023-09-12T02:12:25;25.25;;;16.70;;
41623;SDS011;27319;50.306;18.926;2023-09-12T02:15:26;25.70;;;16.80;;
41623;SDS011;27319;50.306;18.926;2023-09-12T02:18:27;23.00;;;16.20;;
41623;SDS011;27319;50.306;18.926;2023-09-12T02:21:29;25.80;;;17.20;;
41623;SDS011;27319;50.306;18.926;2023-09-12T02:24:30;27.67;;;17.13;;
41623;SDS011;27319;50.306;18.926;2023-09-12T02:27:31;29.92;;;18.10;;
41623;SDS011;27319;50.306;18.926;2023-09-12T02:30:32;31.10;;;18.67;;
41623;SDS011;27319;50.306;18.926;2023-09-12T02:33:33;28.02;;;18.00;;
41623;SDS011;27319;50.306;18.926;2023-09-12T02:36:33;26.05;;;18.42;;
41623;SDS011;27319;50.306;18.926;2023-09-12T02:39:34;24.80;;;17.40;;
41623;SDS011;27319;50.306;18.926;2023-09-12T02:42:35;31.67;;;17.25;;
41623;SDS011;27319;50.306;18.926;2023-09-12T02:45:36;27.42;;;19.20;;
41623;SDS011;27319;50.306;18.926;2023-09-12T02:48:37;25.38;;;16.63;;
41623;SDS011;27319;50.306;18.926;2023-09-12T02:51:38;22.33;;;15.73;;
41623;SDS011;27319;50.306;18.926;2023-09-12T02:54:39;21.30;;;15.77;;
41623;SDS011;27319;50.306;18.926;2023-09-12T02:57:40;23.23;;;15.48;;
41623;SDS011;27319;50.306;18.926;2023-09-12T03:00:41;25.75;;;16.40;;
41623;SDS011;27319;50.306;18.926;2023-09-12T03:03:42;22.58;;;16.17;;
41623;SDS011;27319;50.306;18.926;2023-09-12T03:06:46;25.55;;;16.52;;
41623;SDS011;27319;50.306;18.926;2023-09-12T03:09:48;26.02;;;16.65;;
41623;SDS011;27319;50.306;18.926;2023-09-12T03:12:50;21.83;;;16.27;;
41623;SDS011;27319;50.306;18.926;2023-09-12T03:15:51;21.58;;;15.48;;
41623;SDS011;27319;50.306;18.926;2023-09-12T03:18:52;23.17;;;15.43;;
41623;SDS011;27319;50.306;18.926;2023-09-12T03:21:53;29.20;;;17.48;;
41623;SDS011;27319;50.306;18.926;2023-09-12T03:24:53;21.70;;;15.23;;
41623;SDS011;27319;50.306;18.926;2023-09-12T03:27:54;23.52;;;15.75;;
41623;SDS011;27319;50.306;18.926;2023-09-12T03:31:05;20.40;;;14.93;;
41623;SDS011;27319;50.306;18.926;2023-09-12T03:34:14;26.98;;;16.77;;
41623;SDS011;27319;50.306;18.926;2023-09-12T03:37:15;23.90;;;14.88;;
41623;SDS011;27319;50.306;18.926;2023-09-12T03:40:16;21.40;;;15.68;;
41623;SDS011;27319;50.306;18.926;2023-09-12T03:43:17;23.58;;;15.82;;
41623;SDS011;27319;50.306;18.926;2023-09-12T03:46:18;24.75;;;17.35;;
41623;SDS011;27319;50.306;18.926;2023-09-12T03:49:18;24.83;;;17.10;;
41623;SDS011;27319;50.306;18.926;2023-09-12T03:52:19;22.02;;;16.13;;
41623;SDS011;27319;50.306;18.926;2023-09-12T03:55:20;22.90;;;16.27;;
41623;SDS011;27319;50.306;18.926;2023-09-12T03:58:21;24.83;;;16.48;;
41623;SDS011;27319;50.306;18.926;2023-09-12T04:01:22;22.02;;;15.57;;
41623;SDS011;27319;50.306;18.926;2023-09-12T04:04:23;20.30;;;15.23;;
41623;SDS011;27319;50.306;18.926;2023-09-12T04:07:24;24.40;;;16.17;;
41623;SDS011;27319;50.306;18.926;2023-09-12T04:10:25;20.23;;;14.68;;
41623;SDS011;27319;50.306;18.926;2023-09-12T04:13:25;20.73;;;15.20;;
41623;SDS011;27319;50.306;18.926;2023-09-12T04:16:26;25.38;;;16.10;;
41623;SDS011;27319;50.306;18.926;2023-09-12T04:19:27;27.95;;;17.25;;
41623;SDS011;27319;50.306;18.926;2023-09-12T04:22:28;23.52;;;16.05;;
41623;SDS011;27319;50.306;18.926;2023-09-12T04:25:31;24.92;;;15.75;;
41623;SDS011;27319;50.306;18.926;2023-09-12T04:28:34;26.52;;;15.25;;
41623;SDS011;27319;50.306;18.926;2023-09-12T04:31:34;20.02;;;15.25;;
41623;SDS011;27319;50.306;18.926;2023-09-12T04:34:35;19.33;;;13.85;;
41623;SDS011;27319;50.306;18.926;2023-09-12T04:37:36;21.80;;;15.55;;
41623;SDS011;27319;50.306;18.926;2023-09-12T04:40:38;26.08;;;15.00;;
41623;SDS011;27319;50.306;18.926;2023-09-12T04:43:39;22.42;;;15.50;;
41623;SDS011;27319;50.306;18.926;2023-09-12T04:46:41;19.83;;;15.50;;
41623;SDS011;27319;50.306;18.926;2023-09-12T04:49:43;23.73;;;16.38;;
41623;SDS011;27319;50.306;18.926;2023-09-12T04:52:44;24.75;;;17.10;;
41623;SDS011;27319;50.306;18.926;2023-09-12T04:55:45;23.08;;;15.48;;
41623;SDS011;27319;50.306;18.926;2023-09-12T04:58:45;25.10;;;16.35;;
41623;SDS011;27319;50.306;18.926;2023-09-12T05:01:46;27.48;;;16.95;;
41623;SDS011;27319;50.306;18.926;2023-09-12T05:04:47;20.48;;;14.82;;
41623;SDS011;27319;50.306;18.926;2023-09-12T05:07:51;23.83;;;15.90;;
41623;SDS011;27319;50.306;18.926;2023-09-12T05:10:52;22.08;;;15.48;;
41623;SDS011;27319;50.306;18.926;2023-09-12T05:13:53;23.40;;;17.15;;
41623;SDS011;27319;50.306;18.926;2023-09-12T05:16:54;22.75;;;16.23;;
41623;SDS011;27319;50.306;18.926;2023-09-12T05:19:54;20.75;;;15.82;;
41623;SDS011;27319;50.306;18.926;2023-09-12T05:22:55;23.25;;;16.52;;
41623;SDS011;27319;50.306;18.926;2023-09-12T05:25:56;29.13;;;17.13;;
41623;SDS011;27319;50.306;18.926;2023-09-12T05:28:57;26.48;;;17.77;;
41623;SDS011;27319;50.306;18.926;2023-09-12T05:31:58;22.95;;;16.13;;
41623;SDS011;27319;50.306;18.926;2023-09-12T05:34:59;26.50;;;15.57;;
41623;SDS011;27319;50.306;18.926;2023-09-12T05:38:00;25.73;;;16.90;;
41623;SDS011;27319;50.306;18.926;2023-09-12T05:41:03;23.45;;;16.40;;
41623;SDS011;27319;50.306;18.926;2023-09-12T05:44:04;29.10;;;16.42;;
41623;SDS011;27319;50.306;18.926;2023-09-12T05:47:05;28.58;;;17.02;;
41623;SDS011;27319;50.306;18.926;2023-09-12T05:50:07;27.38;;;17.42;;
41623;SDS011;27319;50.306;18.926;2023-09-12T05:53:08;29.52;;;16.58;;
41623;SDS011;27319;50.306;18.926;2023-09-12T05:56:09;23.40;;;16.95;;
41623;SDS011;27319;50.306;18.926;2023-09-12T05:59:10;27.58;;;17.63;;
41623;SDS011;27319;50.306;18.926;2023-09-12T06:02:11;25.33;;;17.15;;
41623;SDS011;27319;50.306;18.926;2023-09-12T06:05:12;30.15;;;19.40;;
41623;SDS011;27319;50.306;18.926;2023-09-12T06:08:12;40.88;;;19.38;;
41623;SDS011;27319;50.306;18.926;2023-09-12T06:11:13;51.42;;;21.42;;
41623;SDS011;27319;50.306;18.926;2023-09-12T06:14:14;37.05;;;23.13;;
41623;SDS011;27319;50.306;18.926;2023-09-12T06:17:15;34.83;;;21.23;;
41623;SDS011;27319;50.306;18.926;2023-09-12T06:20:16;37.45;;;21.73;;
41623;SDS011;27319;50.306;18.926;2023-09-12T06:23:17;43.97;;;22.50;;
41623;SDS011;27319;50.306;18.926;2023-09-12T06:26:18;32.17;;;18.70;;
41623;SDS011;27319;50.306;18.926;2023-09-12T06:29:18;50.60;;;23.83;;
41623;SDS011;27319;50.306;18.926;2023-09-12T06:32:19;42.85;;;21.33;;
41623;SDS011;27319;50.306;18.926;2023-09-12T06:35:20;33.47;;;18.45;;
41623;SDS011;27319;50.306;18.926;2023-09-12T06:38:22;30.80;;;19.42;;
41623;SDS011;27319;50.306;18.926;2023-09-12T06:41:23;36.35;;;20.98;;
41623;SDS011;27319;50.306;18.926;2023-09-12T06:44:25;39.53;;;22.05;;
41623;SDS011;27319;50.306;18.926;2023-09-12T06:47:26;37.78;;;19.70;;
41623;SDS011;27319;50.306;18.926;2023-09-12T06:50:26;61.65;;;22.08;;
41623;SDS011;27319;50.306;18.926;2023-09-12T06:53:27;40.60;;;22.98;;
41623;SDS011;27319;50.306;18.926;2023-09-12T06:56:28;35.83;;;20.02;;
41623;SDS011;27319;50.306;18.926;2023-09-12T06:59:29;39.70;;;21.50;;
41623;SDS011;27319;50.306;18.926;2023-09-12T07:02:30;30.65;;;18.50;;
41623;SDS011;27319;50.306;18.926;2023-09-12T07:05:31;36.42;;;20.30;;
41623;SDS011;27319;50.306;18.926;2023-09-12T07:08:32;34.35;;;20.35;;
41623;SDS011;27319;50.306;18.926;2023-09-12T07:11:33;30.73;;;18.15;;
41623;SDS011;27319;50.306;18.926;2023-09-12T07:14:34;25.38;;;15.32;;
41623;SDS011;27319;50.306;18.926;2023-09-12T07:17:35;21.85;;;13.68;;
41623;SDS011;27319;50.306;18.926;2023-09-12T07:20:36;17.25;;;10.68;;
41623;SDS011;27319;50.306;18.926;2023-09-12T07:23:37;30.50;;;13.43;;
41623;SDS011;27319;50.306;18.926;2023-09-12T07:26:37;15.73;;;10.35;;
41623;SDS011;27319;50.306;18.926;2023-09-12T07:29:38;36.83;;;12.15;;
41623;SDS011;27319;50.306;18.926;2023-09-12T07:32:39;20.98;;;12.20;;
41623;SDS011;27319;50.306;18.926;2023-09-12T07:35:40;23.52;;;12.40;;
41623;SDS011;27319;50.306;18.926;2023-09-12T07:38:41;38.92;;;13.40;;
41623;SDS011;27319;50.306;18.926;2023-09-12T07:41:43;17.35;;;10.43;;
41623;SDS011;27319;50.306;18.926;2023-09-12T07:44:43;23.58;;;13.07;;
41623;SDS011;27319;50.306;18.926;2023-09-12T07:47:44;23.52;;;11.10;;
41623;SDS011;27319;50.306;18.926;2023-09-12T07:50:45;17.98;;;10.25;;
41623;SDS011;27319;50.306;18.926;2023-09-12T07:53:46;27.27;;;9.95;;
41623;SDS011;27319;50.306;18.926;2023-09-12T07:56:47;70.22;;;16.95;;
41623;SDS011;27319;50.306;18.926;2023-09-12T07:59:48;28.52;;;10.88;;
41623;SDS011;27319;50.306;18.926;2023-09-12T08:02:49;15.32;;;10.10;;
41623;SDS011;27319;50.306;18.926;2023-09-12T08:05:57;19.23;;;10.20;;
41623;SDS011;27319;50.306;18.926;2023-09-12T08:09:00;15.43;;;11.60;;
41623;SDS011;27319;50.306;18.926;2023-09-12T08:12:02;85.38;;;19.27;;
41623;SDS011;27319;50.306;18.926;2023-09-12T08:15:02;25.70;;;11.45;;
41623;SDS011;27319;50.306;18.926;2023-09-12T08:18:04;16.00;;;10.13;;
41623;SDS011;27319;50.306;18.926;2023-09-12T08:21:04;14.10;;;9.32;;
41623;SDS011;27319;50.306;18.926;2023-09-12T08:24:06;17.92;;;9.25;;
41623;SDS011;27319;50.306;18.926;2023-09-12T08:27:06;22.20;;;9.52;;
41623;SDS011;27319;50.306;18.926;2023-09-12T08:30:08;14.30;;;8.25;;
41623;SDS011;27319;50.306;18.926;2023-09-12T08:33:09;11.25;;;7.70;;
41623;SDS011;27319;50.306;18.926;2023-09-12T08:36:10;11.43;;;8.05;;
41623;SDS011;27319;50.306;18.926;2023-09-12T08:39:14;14.40;;;8.07;;
41623;SDS011;27319;50.306;18.926;2023-09-12T08:42:16;13.07;;;9.32;;
41623;SDS011;27319;50.306;18.926;2023-09-12T08:45:17;17.58;;;8.40;;
41623;SDS011;27319;50.306;18.926;2023-09-12T08:48:19;12.20;;;7.78;;
41623;SDS011;27319;50.306;18.926;2023-09-12T08:51:23;13.88;;;9.20;;
41623;SDS011;27319;50.306;18.926;2023-09-12T08:54:24;15.68;;;8.73;;
41623;SDS011;27319;50.306;18.926;2023-09-12T08:57:25;13.77;;;8.88;;
41623;SDS011;27319;50.306;18.926;2023-09-12T09:00:27;11.63;;;8.52;;
41623;SDS011;27319;50.306;18.926;2023-09-12T09:03:28;14.40;;;8.45;;
41623;SDS011;27319;50.306;18.926;2023-09-12T09:06:30;17.33;;;8.88;;
41623;SDS011;27319;50.306;18.926;2023-09-12T09:09:39;18.17;;;8.52;;
41623;SDS011;27319;50.306;18.926;2023-09-12T09:12:42;13.98;;;9.00;;
41623;SDS011;27319;50.306;18.926;2023-09-12T09:15:44;222.73;;;32.00;;
41623;SDS011;27319;50.306;18.926;2023-09-12T09:18:52;16.45;;;9.32;;
41623;SDS011;27319;50.306;18.926;2023-09-12T09:22:06;33.22;;;11.52;;
41623;SDS011;27319;50.306;18.926;2023-09-12T09:25:10;46.90;;;12.50;;
41623;SDS011;27319;50.306;18.926;2023-09-12T09:28:18;21.88;;;11.52;;
41623;SDS011;27319;50.306;18.926;2023-09-12T09:31:22;12.90;;;9.65;;
41623;SDS011;27319;50.306;18.926;2023-09-12T09:34:23;15.93;;;10.02;;
41623;SDS011;27319;50.306;18.926;2023-09-12T09:37:24;14.35;;;9.75;;
41623;SDS011;27319;50.306;18.926;2023-09-12T09:40:25;16.45;;;9.77;;
41623;SDS011;27319;50.306;18.926;2023-09-12T09:43:26;17.52;;;10.30;;
41623;SDS011;27319;50.306;18.926;2023-09-12T09:46:27;294.75;;;37.80;;
41623;SDS011;27319;50.306;18.926;2023-09-12T09:49:30;22.40;;;7.75;;
41623;SDS011;27319;50.306;18.926;2023-09-12T09:52:31;28.00;;;11.18;;
41623;SDS011;27319;50.306;18.926;2023-09-12T09:55:32;16.05;;;8.45;;
41623;SDS011;27319;50.306;18.926;2023-09-12T09:58:33;18.55;;;7.90;;
41623;SDS011;27319;50.306;18.926;2023-09-12T10:01:34;11.25;;;7.22;;
41623;SDS011;27319;50.306;18.926;2023-09-12T10:04:36;16.55;;;7.88;;
41623;SDS011;27319;50.306;18.926;2023-09-12T10:07:38;37.33;;;10.00;;
41623;SDS011;27319;50.306;18.926;2023-09-12T10:10:42;24.15;;;8.27;;
41623;SDS011;27319;50.306;18.926;2023-09-12T10:13:53;96.53;;;17.92;;
41623;SDS011;27319;50.306;18.926;2023-09-12T10:16:57;16.55;;;7.88;;
41623;SDS011;27319;50.306;18.926;2023-09-12T10:20:03;13.50;;;6.88;;
41623;SDS011;27319;50.306;18.926;2023-09-12T10:23:14;8.40;;;6.55;;
41623;SDS011;27319;50.306;18.926;2023-09-12T10:26:20;17.27;;;9.38;;
41623;SDS011;27319;50.306;18.926;2023-09-12T10:29:22;9.65;;;6.90;;
41623;SDS011;27319;50.306;18.926;2023-09-12T10:32:23;11.05;;;6.22;;
41623;SDS011;27319;50.306;18.926;2023-09-12T10:35:27;8.60;;;6.88;;
41623;SDS011;27319;50.306;18.926;2023-09-12T10:38:30;12.52;;;7.78;;
41623;SDS011;27319;50.306;18.926;2023-09-12T10:41:37;16.17;;;6.93;;
41623;SDS011;27319;50.306;18.926;2023-09-12T10:44:39;12.40;;;6.40;;
41623;SDS011;27319;50.306;18.926;2023-09-12T10:47:40;10.93;;;6.82;;
41623;SDS011;27319;50.306;18.926;2023-09-12T10:50:41;58.50;;;10.23;;
41623;SDS011;27319;50.306;18.926;2023-09-12T10:53:48;15.18;;;6.75;;
41623;SDS011;27319;50.306;18.926;2023-09-12T10:57:06;10.40;;;6.57;;
41623;SDS011;27319;50.306;18.926;2023-09-12T11:00:09;15.57;;;6.73;;
41623;SDS011;27319;50.306;18.926;2023-09-12T11:06:29;10.98;;;6.43;;
41623;SDS011;27319;50.306;18.926;2023-09-12T11:09:31;10.55;;;7.10;;
41623;SDS011;27319;50.306;18.926;2023-09-12T11:12:35;10.23;;;6.57;;
41623;SDS011;27319;50.306;18.926;2023-09-12T11:15:36;7.43;;;6.32;;
41623;SDS011;27319;50.306;18.926;2023-09-12T11:25:33;11.43;;;5.95;;
41623;SDS011;27319;50.306;18.926;2023-09-12T11:28:36;12.95;;;6.63;;
41623;SDS011;27319;50.306;18.926;2023-09-12T11:31:37;11.63;;;6.75;;
41623;SDS011;27319;50.306;18.926;2023-09-12T11:34:43;9.27;;;5.93;;
41623;SDS011;27319;50.306;18.926;2023-09-12T11:37:51;9.25;;;6.50;;
41623;SDS011;27319;50.306;18.926;2023-09-12T11:40:55;11.25;;;5.90;;
41623;SDS011;27319;50.306;18.926;2023-09-12T11:43:59;9.82;;;6.70;;
41623;SDS011;27319;50.306;18.926;2023-09-12T11:47:00;10.40;;;6.00;;
41623;SDS011;27319;50.306;18.926;2023-09-12T11:50:06;10.00;;;6.15;;
41623;SDS011;27319;50.306;18.926;2023-09-12T11:53:08;9.48;;;5.88;;
41623;SDS011;27319;50.306;18.926;2023-09-12T11:56:10;11.40;;;6.97;;
41623;SDS011;27319;50.306;18.926;2023-09-12T11:59:11;20.08;;;6.60;;
41623;SDS011;27319;50.306;18.926;2023-09-12T12:02:12;9.93;;;7.07;;
41623;SDS011;27319;50.306;18.926;2023-09-12T12:05:14;7.78;;;6.30;;
41623;SDS011;27319;50.306;18.926;2023-09-12T12:08:15;8.23;;;6.53;;
41623;SDS011;27319;50.306;18.926;2023-09-12T12:11:18;9.80;;;6.53;;
41623;SDS011;27319;50.306;18.926;2023-09-12T12:14:19;10.75;;;6.40;;
41623;SDS011;27319;50.306;18.926;2023-09-12T12:17:20;11.05;;;6.43;;
41623;SDS011;27319;50.306;18.926;2023-09-12T12:20:21;10.65;;;6.63;;
41623;SDS011;27319;50.306;18.926;2023-09-12T12:23:23;8.70;;;6.65;;
41623;SDS011;27319;50.306;18.926;2023-09-12T12:26:24;9.55;;;6.40;;
41623;SDS011;27319;50.306;18.926;2023-09-12T12:29:26;12.52;;;6.35;;
41623;SDS011;27319;50.306;18.926;2023-09-12T12:32:26;9.48;;;6.60;;
41623;SDS011;27319;50.306;18.926;2023-09-12T12:35:27;9.13;;;7.00;;
41623;SDS011;27319;50.306;18.926;2023-09-12T12:38:33;9.90;;;6.95;;
41623;SDS011;27319;50.306;18.926;2023-09-12T12:41:35;11.82;;;6.13;;
41623;SDS011;27319;50.306;18.926;2023-09-12T12:44:36;9.23;;;6.40;;
41623;SDS011;27319;50.306;18.926;2023-09-12T12:47:41;10.48;;;6.28;;
41623;SDS011;27319;50.306;18.926;2023-09-12T12:50:42;9.15;;;6.13;;
41623;SDS011;27319;50.306;18.926;2023-09-12T12:53:47;9.00;;;6.60;;
41623;SDS011;27319;50.306;18.926;2023-09-12T12:56:52;8.02;;;5.80;;
41623;SDS011;27319;50.306;18.926;2023-09-12T12:59:53;8.48;;;6.57;;
41623;SDS011;27319;50.306;18.926;2023-09-12T13:02:54;12.48;;;5.95;;
41623;SDS011;27319;50.306;18.926;2023-09-12T13:05:55;11.80;;;6.60;;
41623;SDS011;27319;50.306;18.926;2023-09-12T13:08:57;10.23;;;6.38;;
41623;SDS011;27319;50.306;18.926;2023-09-12T13:12:02;13.95;;;6.43;;
41623;SDS011;27319;50.306;18.926;2023-09-12T13:15:05;10.68;;;5.75;;
41623;SDS011;27319;50.306;18.926;2023-09-12T13:18:07;9.55;;;5.90;;
41623;SDS011;27319;50.306;18.926;2023-09-12T13:21:07;9.18;;;6.25;;
41623;SDS011;27319;50.306;18.926;2023-09-12T13:24:08;9.77;;;6.68;;
41623;SDS011;27319;50.306;18.926;2023-09-12T13:27:09;10.68;;;7.00;;
41623;SDS011;27319;50.306;18.926;2023-09-12T13:30:10;13.95;;;7.55;;
41623;SDS011;27319;50.306;18.926;2023-09-12T13:33:12;9.18;;;6.93;;
41623;SDS011;27319;50.306;18.926;2023-09-12T13:36:15;6.95;;;6.25;;
41623;SDS011;27319;50.306;18.926;2023-09-12T13:39:16;9.00;;;6.15;;
41623;SDS011;27319;50.306;18.926;2023-09-12T13:42:18;10.75;;;6.85;;
41623;SDS011;27319;50.306;18.926;2023-09-12T13:45:19;8.88;;;5.80;;
41623;SDS011;27319;50.306;18.926;2023-09-12T13:48:20;8.73;;;6.00;;
41623;SDS011;27319;50.306;18.926;2023-09-12T13:51:21;9.48;;;5.75;;
41623;SDS011;27319;50.306;18.926;2023-09-12T13:54:22;7.47;;;5.63;;
41623;SDS011;27319;50.306;18.926;2023-09-12T13:57:23;10.98;;;6.70;;
41623;SDS011;27319;50.306;18.926;2023-09-12T14:00:24;7.03;;;5.53;;
41623;SDS011;27319;50.306;18.926;2023-09-12T14:03:27;7.68;;;5.60;;
41623;SDS011;27319;50.306;18.926;2023-09-12T14:06:28;8.63;;;5.20;;
41623;SDS011;27319;50.306;18.926;2023-09-12T14:09:29;9.18;;;5.38;;
41623;SDS011;27319;50.306;18.926;2023-09-12T14:12:30;13.10;;;7.32;;
41623;SDS011;27319;50.306;18.926;2023-09-12T14:15:31;8.85;;;5.75;;
41623;SDS011;27319;50.306;18.926;2023-09-12T14:18:32;6.68;;;5.97;;
41623;SDS011;27319;50.306;18.926;2023-09-12T14:21:33;6.82;;;5.80;;
41623;SDS011;27319;50.306;18.926;2023-09-12T14:24:34;7.50;;;5.72;;
41623;SDS011;27319;50.306;18.926;2023-09-12T14:27:34;6.00;;;5.13;;
41623;SDS011;27319;50.306;18.926;2023-09-12T14:30:35;12.20;;;6.40;;
41623;SDS011;27319;50.306;18.926;2023-09-12T14:33:38;10.70;;;5.78;;
41623;SDS011;27319;50.306;18.926;2023-09-12T14:36:39;8.05;;;6.18;;
41623;SDS011;27319;50.306;18.926;2023-09-12T14:39:39;8.02;;;5.93;;
41623;SDS011;27319;50.306;18.926;2023-09-12T14:42:40;9.45;;;6.22;;
41623;SDS011;27319;50.306;18.926;2023-09-12T14:45:41;7.30;;;5.95;;
41623;SDS011;27319;50.306;18.926;2023-09-12T14:48:42;7.82;;;6.32;;
41623;SDS011;27319;50.306;18.926;2023-09-12T14:51:44;7.63;;;5.85;;
41623;SDS011;27319;50.306;18.926;2023-09-12T14:54:45;14.55;;;7.28;;
41623;SDS011;27319;50.306;18.926;2023-09-12T14:57:46;27.95;;;10.38;;
41623;SDS011;27319;50.306;18.926;2023-09-12T15:00:47;114.10;;;31.27;;
41623;SDS011;27319;50.306;18.926;2023-09-12T15:03:48;98.18;;;27.98;;
41623;SDS011;27319;50.306;18.926;2023-09-12T15:06:49;37.15;;;14.45;;
41623;SDS011;27319;50.306;18.926;2023-09-12T15:09:50;20.48;;;7.03;;
41623;SDS011;27319;50.306;18.926;2023-09-12T15:12:51;8.95;;;6.40;;
41623;SDS011;27319;50.306;18.926;2023-09-12T15:15:53;11.88;;;7.40;;
41623;SDS011;27319;50.306;18.926;2023-09-12T15:18:54;12.93;;;7.72;;
41623;SDS011;27319;50.306;18.926;2023-09-12T15:21:55;11.35;;;6.72;;
41623;SDS011;27319;50.306;18.926;2023-09-12T15:24:56;9.10;;;5.72;;
41623;SDS011;27319;50.306;18.926;2023-09-12T15:27:57;6.60;;;5.80;;
41623;SDS011;27319;50.306;18.926;2023-09-12T15:30:58;9.63;;;6.43;;
41623;SDS011;27319;50.306;18.926;2023-09-12T15:34:02;10.50;;;6.75;;
41623;SDS011;27319;50.306;18.926;2023-09-12T15:37:21;7.88;;;6.90;;
41623;SDS011;27319;50.306;18.926;2023-09-12T15:40:22;11.18;;;7.00;;
41623;SDS011;27319;50.306;18.926;2023-09-12T15:43:23;10.77;;;6.22;;
41623;SDS011;27319;50.306;18.926;2023-09-12T15:46:24;10.07;;;6.63;;
41623;SDS011;27319;50.306;18.926;2023-09-12T15:49:25;10.98;;;6.70;;
41623;SDS011;27319;50.306;18.926;2023-09-12T15:52:26;16.23;;;6.80;;
41623;SDS011;27319;50.306;18.926;2023-09-12T15:55:27;15.93;;;6.88;;
41623;SDS011;27319;50.306;18.926;2023-09-12T15:58:28;10.20;;;6.53;;
41623;SDS011;27319;50.306;18.926;2023-09-12T16:01:29;10.48;;;6.63;;
41623;SDS011;27319;50.306;18.926;2023-09-12T16:04:30;10.20;;;7.28;;
41623;SDS011;27319;50.306;18.926;2023-09-12T16:07:31;8.52;;;7.10;;
41623;SDS011;27319;50.306;18.926;2023-09-12T16:10:32;9.73;;;7.65;;
41623;SDS011;27319;50.306;18.926;2023-09-12T16:13:33;13.57;;;7.90;;
41623;SDS011;27319;50.306;18.926;2023-09-12T16:16:34;17.63;;;7.35;;
41623;SDS011;27319;50.306;18.926;2023-09-12T16:19:35;9.27;;;7.53;;
41623;SDS011;27319;50.306;18.926;2023-09-12T16:22:36;13.63;;;7.90;;
41623;SDS011;27319;50.306;18.926;2023-09-12T16:25:37;18.20;;;8.32;;
41623;SDS011;27319;50.306;18.926;2023-09-12T16:28:37;23.10;;;9.63;;
41623;SDS011;27319;50.306;18.926;2023-09-12T16:31:38;10.82;;;7.80;;
41623;SDS011;27319;50.306;18.926;2023-09-12T16:34:40;12.30;;;7.78;;
41623;SDS011;27319;50.306;18.926;2023-09-12T16:37:41;12.60;;;7.70;;
41623;SDS011;27319;50.306;18.926;2023-09-12T16:40:45;13.20;;;7.63;;
41623;SDS011;27319;50.306;18.926;2023-09-12T16:43:48;9.73;;;7.28;;
41623;SDS011;27319;50.306;18.926;2023-09-12T16:46:50;28.50;;;20.85;;
41623;SDS011;27319;50.306;18.926;2023-09-12T16:49:51;32.65;;;23.77;;
41623;SDS011;27319;50.306;18.926;2023-09-12T16:52:52;30.60;;;20.83;;
41623;SDS011;27319;50.306;18.926;2023-09-12T16:55:53;60.03;;;34.38;;
41623;SDS011;27319;50.306;18.926;2023-09-12T16:58:53;40.92;;;23.98;;
41623;SDS011;27319;50.306;18.926;2023-09-12T17:01:54;33.25;;;20.65;;
41623;SDS011;27319;50.306;18.926;2023-09-12T17:04:55;25.52;;;16.30;;
41623;SDS011;27319;50.306;18.926;2023-09-12T17:07:56;20.35;;;14.00;;
41623;SDS011;27319;50.306;18.926;2023-09-12T17:11:00;19.60;;;12.63;;
41623;SDS011;27319;50.306;18.926;2023-09-12T17:14:01;15.82;;;10.60;;
41623;SDS011;27319;50.306;18.926;2023-09-12T17:17:02;22.95;;;12.00;;
41623;SDS011;27319;50.306;18.926;2023-09-12T17:20:03;14.07;;;10.93;;
41623;SDS011;27319;50.306;18.926;2023-09-12T17:23:04;16.75;;;10.75;;
41623;SDS011;27319;50.306;18.926;2023-09-12T17:26:05;23.48;;;9.77;;
41623;SDS011;27319;50.306;18.926;2023-09-12T17:29:06;16.35;;;9.75;;
41623;SDS011;27319;50.306;18.926;2023-09-12T17:32:10;15.13;;;9.55;;
41623;SDS011;27319;50.306;18.926;2023-09-12T17:35:11;16.02;;;9.00;;
41623;SDS011;27319;50.306;18.926;2023-09-12T17:38:12;13.65;;;10.07;;
41623;SDS011;27319;50.306;18.926;2023-09-12T17:41:13;14.27;;;10.10;;
41623;SDS011;27319;50.306;18.926;2023-09-12T17:44:14;21.63;;;9.40;;
41623;SDS011;27319;50.306;18.926;2023-09-12T17:47:14;13.20;;;10.25;;
41623;SDS011;27319;50.306;18.926;2023-09-12T17:50:16;18.27;;;9.98;;